Itamari, Brazil
Current Conditions -  °F | °C
As of 5:00 AM on Thursday 23 Oct 2014 (Local Time) from SBIL Reporting Station
Light Rain Light Rain  
Wind Chill: 70°   Ceiling: 2000
Heat Index: 70°   Visibility: 3mi
Dew Point: 68°   Wind: 9mph
Humidity: 94%   Direction: 220°SW
Pressure: NA   Gusts: NA
Location:  13.79°S, 39.67°W
Report Text: SBIL 230800Z 22008KT 5000 -RA BR SCT006 BKN020 OVC070 21/20 Q1017
Loading
Personal Weather Stations






























Interactive Weather Map
Tropical Storm Tracking
New forecast layout! Learn more

10-Day Weather Forecast

Advertisements
Track Severe Weather on mobile